createdAt,value
2023-01-10T00:01:06.976Z,17.20
2023-01-10T00:06:11.341Z,17.10
2023-01-10T00:11:34.104Z,17.20
2023-01-10T00:16:39.812Z,17.10
2023-01-10T00:21:44.112Z,17.10
2023-01-10T00:26:54.137Z,17.10
2023-01-10T00:31:58.625Z,17.10
2023-01-10T00:37:02.856Z,17.10
2023-01-10T00:42:26.332Z,17.20
2023-01-10T00:47:30.580Z,17.20
2023-01-10T00:52:35.538Z,17.20
2023-01-10T00:57:39.753Z,17.20
2023-01-10T01:02:44.068Z,17.20
2023-01-10T01:07:52.847Z,17.20
2023-01-10T01:12:59.328Z,17.10
2023-01-10T01:18:07.254Z,17.20
2023-01-10T01:23:11.897Z,17.10
2023-01-10T01:28:16.253Z,17.10
2023-01-10T01:33:21.296Z,17.00
2023-01-10T01:38:25.736Z,17.10
2023-01-10T01:43:34.885Z,17.10
2023-01-10T01:48:41.959Z,17.20
2023-01-10T01:53:52.079Z,17.10
2023-01-10T01:59:02.027Z,17.00
2023-01-10T02:04:14.200Z,17.00
2023-01-10T02:09:40.375Z,17.10
2023-01-10T02:14:47.089Z,17.10
2023-01-10T02:20:24.266Z,17.20
2023-01-10T02:25:47.380Z,17.10
2023-01-10T02:31:21.486Z,17.20
2023-01-10T02:36:37.640Z,17.10
2023-01-10T02:41:52.842Z,17.10
2023-01-10T02:46:57.737Z,17.00
2023-01-10T02:52:02.048Z,16.90
2023-01-10T02:57:27.103Z,17.00
2023-01-10T03:02:58.789Z,17.00
2023-01-10T03:08:12.575Z,16.90
2023-01-10T03:13:38.397Z,17.00
2023-01-10T03:18:49.009Z,17.00
2023-01-10T03:23:57.432Z,17.00
2023-01-10T03:29:08.987Z,17.10
2023-01-10T03:34:13.658Z,17.00
2023-01-10T03:39:40.613Z,16.90
2023-01-10T03:45:10.063Z,17.00
2023-01-10T03:50:19.383Z,16.90
2023-01-10T03:55:27.303Z,16.80
2023-01-10T04:00:32.271Z,16.90
2023-01-10T04:05:36.717Z,16.80
2023-01-10T04:10:40.940Z,16.80
2023-01-10T04:15:45.436Z,16.90
2023-01-10T04:20:52.052Z,16.80
2023-01-10T04:25:56.610Z,16.80
2023-01-10T04:31:08.276Z,16.80
2023-01-10T04:36:13.280Z,16.80
2023-01-10T04:41:17.730Z,16.80
2023-01-10T04:46:22.084Z,16.80
2023-01-10T04:51:27.833Z,16.80
2023-01-10T04:56:31.949Z,16.80
2023-01-10T05:01:39.583Z,16.80
2023-01-10T05:06:43.710Z,16.70
2023-01-10T05:11:48.471Z,16.80
2023-01-10T05:16:53.336Z,16.80
2023-01-10T05:21:57.758Z,16.70
2023-01-10T05:27:02.092Z,16.80
2023-01-10T05:32:06.643Z,16.80
2023-01-10T05:37:10.869Z,16.80
2023-01-10T05:42:15.312Z,16.70
2023-01-10T05:47:19.868Z,16.70
2023-01-10T05:52:24.712Z,16.70
2023-01-10T05:57:29.056Z,16.70
2023-01-10T06:02:34.160Z,16.70
2023-01-10T06:07:38.763Z,16.60
2023-01-10T06:12:43.918Z,16.70
2023-01-10T06:17:51.108Z,16.70
2023-01-10T06:22:55.765Z,16.70
2023-01-10T06:28:00.110Z,16.70
2023-01-10T06:33:09.228Z,16.60
2023-01-10T06:38:22.200Z,16.70
2023-01-10T06:43:26.637Z,16.70
2023-01-10T06:48:30.862Z,16.70
2023-01-10T06:53:35.316Z,16.70
2023-01-10T06:58:40.765Z,16.70
2023-01-10T07:03:45.679Z,16.70
2023-01-10T07:08:49.858Z,16.70
2023-01-10T07:13:54.518Z,16.70
2023-01-10T07:19:01.016Z,16.60
2023-01-10T07:24:05.855Z,16.70
2023-01-10T07:29:10.617Z,16.60
2023-01-10T07:34:15.052Z,16.60
2023-01-10T07:39:19.385Z,16.60
2023-01-10T07:44:26.793Z,16.60
2023-01-10T07:49:39.949Z,16.60
2023-01-10T07:54:44.575Z,16.60
2023-01-10T07:59:48.705Z,16.60
2023-01-10T08:04:52.954Z,16.60
2023-01-10T08:09:57.177Z,16.60
2023-01-10T08:15:01.637Z,16.70
2023-01-10T08:20:06.625Z,16.70
2023-01-10T08:25:11.535Z,16.70
2023-01-10T08:30:16.302Z,16.70
2023-01-10T08:35:21.038Z,16.60
2023-01-10T08:40:25.378Z,16.60
2023-01-10T08:45:30.840Z,16.50
2023-01-10T08:50:41.317Z,16.50
2023-01-10T08:55:45.456Z,16.60
2023-01-10T09:00:50.320Z,16.60
2023-01-10T09:05:54.386Z,16.60
2023-01-10T09:11:01.236Z,16.50
2023-01-10T09:16:05.980Z,16.50
2023-01-10T09:21:10.112Z,16.50
2023-01-10T09:26:14.708Z,16.50
2023-01-10T09:31:22.151Z,16.50
2023-01-10T09:36:26.214Z,16.50
2023-01-10T09:41:59.000Z,16.60
2023-01-10T09:47:22.120Z,16.60
2023-01-10T09:52:33.772Z,16.60
2023-01-10T09:57:38.211Z,16.50
2023-01-10T10:02:46.765Z,16.50
2023-01-10T10:08:05.577Z,16.50
2023-01-10T10:13:37.090Z,16.50
2023-01-10T10:19:42.102Z,16.50
2023-01-10T10:25:04.986Z,16.40
2023-01-10T10:30:20.879Z,16.50
2023-01-10T10:36:16.022Z,16.50
2023-01-10T10:42:06.127Z,16.50
2023-01-10T10:47:22.710Z,16.50
2023-01-10T10:52:35.182Z,16.50
2023-01-10T10:57:48.419Z,16.50
2023-01-10T11:03:07.872Z,16.50
2023-01-10T11:08:20.518Z,16.50
2023-01-10T11:13:40.036Z,16.40
2023-01-10T11:19:04.439Z,16.50
2023-01-10T11:24:51.341Z,16.50
2023-01-10T11:30:09.735Z,16.60
2023-01-10T11:35:25.596Z,16.50
2023-01-10T11:40:31.752Z,16.50
2023-01-10T11:45:37.477Z,16.60
2023-01-10T11:50:46.524Z,16.50
2023-01-10T11:55:51.052Z,16.50
2023-01-10T12:00:57.442Z,16.50
2023-01-10T12:06:05.141Z,16.40
2023-01-10T12:11:18.494Z,16.50
2023-01-10T12:16:28.963Z,16.50
2023-01-10T12:21:46.039Z,16.60
2023-01-10T12:26:54.120Z,16.50
2023-01-10T12:32:01.241Z,16.50
2023-01-10T12:37:24.084Z,16.50
2023-01-10T12:43:19.187Z,16.60
2023-01-10T12:48:34.683Z,16.50
2023-01-10T12:53:49.166Z,16.60
2023-01-10T12:59:02.197Z,16.60
2023-01-10T13:04:11.861Z,16.60
2023-01-10T13:09:22.723Z,16.50
2023-01-10T13:14:52.457Z,16.50
2023-01-10T13:20:24.850Z,16.50
2023-01-10T13:25:35.390Z,16.50
2023-01-10T13:30:43.846Z,16.50
2023-01-10T13:35:49.750Z,16.40
2023-01-10T13:41:03.470Z,16.60
2023-01-10T13:46:28.650Z,16.60
2023-01-10T13:51:33.350Z,16.60
2023-01-10T13:56:42.669Z,16.60
2023-01-10T14:02:13.875Z,16.60
2023-01-10T14:07:23.890Z,16.50
2023-01-10T14:12:47.451Z,16.40
2023-01-10T14:18:05.137Z,16.40
2023-01-10T14:23:21.833Z,16.40
2023-01-10T14:28:34.392Z,16.40
2023-01-10T14:33:42.834Z,16.50
2023-01-10T14:38:50.034Z,16.50
2023-01-10T14:44:14.657Z,16.40
2023-01-10T14:49:20.812Z,16.40
2023-01-10T14:54:25.355Z,16.40
2023-01-10T14:59:36.557Z,16.40
2023-01-10T15:04:54.289Z,16.40
2023-01-10T15:10:06.618Z,16.40
2023-01-10T15:15:16.065Z,16.40
2023-01-10T15:20:22.089Z,16.40
2023-01-10T15:25:41.052Z,16.40
2023-01-10T15:30:45.777Z,16.40
2023-01-10T15:35:50.116Z,16.40
2023-01-10T15:41:04.166Z,16.30
2023-01-10T15:46:22.289Z,16.30
2023-01-10T15:51:35.295Z,16.40
2023-01-10T15:56:42.580Z,16.60
2023-01-10T16:01:57.663Z,16.50
2023-01-10T16:07:19.198Z,16.40
2023-01-10T16:12:55.772Z,16.30
2023-01-10T16:18:00.343Z,16.30
2023-01-10T16:23:13.642Z,16.30
2023-01-10T16:28:19.522Z,16.40
2023-01-10T16:33:27.371Z,16.40
2023-01-10T16:38:31.782Z,16.30
2023-01-10T16:43:35.820Z,16.30
2023-01-10T16:48:40.578Z,16.30
2023-01-10T16:53:46.037Z,16.20
2023-01-10T16:58:51.578Z,16.20
2023-01-10T17:03:56.972Z,16.20
2023-01-10T17:09:01.089Z,16.30
2023-01-10T17:14:06.260Z,16.30
2023-01-10T17:19:10.498Z,16.40
2023-01-10T17:24:15.039Z,16.40
2023-01-10T17:29:23.389Z,16.40
2023-01-10T17:34:31.798Z,16.30
2023-01-10T17:39:38.175Z,16.30
2023-01-10T17:44:42.759Z,16.30
2023-01-10T17:49:47.076Z,16.20
2023-01-10T17:54:51.723Z,16.20
2023-01-10T17:59:56.358Z,16.20
2023-01-10T18:05:00.911Z,16.20
2023-01-10T18:10:16.944Z,16.20
2023-01-10T18:15:27.628Z,16.20
2023-01-10T18:20:32.289Z,16.20
2023-01-10T18:25:36.777Z,16.30
2023-01-10T18:30:45.123Z,16.30
2023-01-10T18:35:57.958Z,16.30
2023-01-10T18:41:02.623Z,16.30
2023-01-10T18:46:10.871Z,16.30
2023-01-10T18:51:26.020Z,16.20
2023-01-10T18:56:41.501Z,16.20
2023-01-10T19:01:47.008Z,16.10
2023-01-10T19:06:56.839Z,16.20
2023-01-10T19:12:01.917Z,16.20
2023-01-10T19:17:07.363Z,16.20
2023-01-10T19:22:13.373Z,16.10
2023-01-10T19:27:22.186Z,16.10
2023-01-10T19:32:36.971Z,16.10
2023-01-10T19:37:41.909Z,16.20
2023-01-10T19:42:48.302Z,16.20
2023-01-10T19:47:55.599Z,16.20
2023-01-10T19:53:01.312Z,16.10
2023-01-10T19:58:07.146Z,16.20
2023-01-10T20:03:16.422Z,16.20
2023-01-10T20:08:29.436Z,16.20
2023-01-10T20:13:39.366Z,16.20
2023-01-10T20:18:47.056Z,16.20
2023-01-10T20:24:00.895Z,16.10
2023-01-10T20:29:07.247Z,16.20
2023-01-10T20:34:13.238Z,16.10
2023-01-10T20:39:19.025Z,16.10
2023-01-10T20:44:24.083Z,16.10
2023-01-10T20:49:28.841Z,16.10
2023-01-10T20:54:45.309Z,16.00
2023-01-10T20:59:50.200Z,16.10
2023-01-10T21:04:56.977Z,16.20
2023-01-10T21:10:01.721Z,16.20
2023-01-10T21:15:09.128Z,16.10
2023-01-10T21:20:14.256Z,16.20
2023-01-10T21:25:21.708Z,16.10
2023-01-10T21:30:26.247Z,16.10
2023-01-10T21:35:30.598Z,16.20
2023-01-10T21:40:44.137Z,16.10
2023-01-10T21:45:50.921Z,16.10
2023-01-10T21:50:55.477Z,16.10
2023-01-10T21:56:02.486Z,16.10
2023-01-10T22:01:28.098Z,16.00
2023-01-10T22:06:32.377Z,16.00
2023-01-10T22:11:36.879Z,16.00
2023-01-10T22:16:41.258Z,16.00
2023-01-10T22:21:45.459Z,16.10
2023-01-10T22:26:49.841Z,16.20
2023-01-10T22:31:54.682Z,16.10
2023-01-10T22:36:58.891Z,16.10
2023-01-10T22:42:03.213Z,16.10
2023-01-10T22:47:07.570Z,16.00
2023-01-10T22:52:11.999Z,16.00
2023-01-10T22:57:16.135Z,16.00
2023-01-10T23:02:20.314Z,16.00
2023-01-10T23:07:24.835Z,15.90
2023-01-10T23:12:28.845Z,15.90
2023-01-10T23:17:32.885Z,15.90
2023-01-10T23:22:37.018Z,15.90
2023-01-10T23:27:41.159Z,15.90
2023-01-10T23:32:45.183Z,16.00
2023-01-10T23:37:49.320Z,16.00
2023-01-10T23:42:53.368Z,15.90
2023-01-10T23:47:57.702Z,16.00
2023-01-10T23:53:01.808Z,16.00
2023-01-10T23:58:06.170Z,15.90
